createdAt,value
2022-10-01T00:00:56.759Z,99841.28
2022-10-01T00:03:25.212Z,99819.53
2022-10-01T00:06:13.015Z,99823.50
2022-10-01T00:08:41.389Z,99816.06
2022-10-01T00:11:09.963Z,99845.50
2022-10-01T00:13:36.534Z,99827.31
2022-10-01T00:16:08.651Z,99847.00
2022-10-01T00:18:36.985Z,99870.63
2022-10-01T00:21:10.614Z,99865.75
2022-10-01T00:23:38.037Z,99862.47
2022-10-01T00:26:17.234Z,99851.41
2022-10-01T00:28:46.746Z,99829.44
2022-10-01T00:31:15.374Z,99841.72
2022-10-01T00:33:42.586Z,99842.03
2022-10-01T00:36:10.421Z,99831.19
2022-10-01T00:38:38.057Z,99839.69
2022-10-01T00:41:05.210Z,99831.78
2022-10-01T00:43:35.060Z,99841.22
2022-10-01T00:46:15.083Z,99795.13
2022-10-01T00:48:52.497Z,99819.16
2022-10-01T00:51:20.803Z,99810.31
2022-10-01T00:53:47.428Z,99779.69
2022-10-01T00:56:13.915Z,99784.38
2022-10-01T00:58:40.728Z,99790.03
2022-10-01T01:01:07.214Z,99793.16
2022-10-01T01:03:34.458Z,99786.78
2022-10-01T01:06:00.889Z,99786.00
2022-10-01T01:08:29.390Z,99785.53
2022-10-01T01:11:13.850Z,99787.19
2022-10-01T01:13:57.799Z,99777.88
2022-10-01T01:16:47.990Z,99779.53
2022-10-01T01:19:34.903Z,99764.38
2022-10-01T01:22:05.749Z,99766.09
2022-10-01T01:24:45.782Z,99744.34
2022-10-01T01:27:26.512Z,99755.69
2022-10-01T01:30:10.466Z,99764.25
2022-10-01T01:32:49.126Z,99751.72
2022-10-01T01:35:28.039Z,99753.34
2022-10-01T01:37:58.756Z,99734.13
2022-10-01T01:40:26.069Z,99758.25
2022-10-01T01:42:55.639Z,99762.53
2022-10-01T01:45:25.958Z,99753.69
2022-10-01T01:47:56.026Z,99749.88
2022-10-01T01:50:25.590Z,99760.34
2022-10-01T01:52:53.995Z,99753.13
2022-10-01T01:55:26.237Z,99753.13
2022-10-01T01:57:54.351Z,99739.03
2022-10-01T02:00:22.462Z,99746.03
2022-10-01T02:02:53.210Z,99740.78
2022-10-01T02:05:25.050Z,99753.03
2022-10-01T02:08:12.690Z,99754.66
2022-10-01T02:10:54.105Z,99753.94
2022-10-01T02:13:43.198Z,99736.97
2022-10-01T02:16:19.055Z,99724.50
2022-10-01T02:18:57.767Z,99729.31
2022-10-01T02:21:40.024Z,99728.84
2022-10-01T02:24:33.660Z,99710.56
2022-10-01T02:27:03.906Z,99730.22
2022-10-01T02:29:30.938Z,99728.00
2022-10-01T02:31:57.424Z,99723.72
2022-10-01T02:34:29.247Z,99726.16
2022-10-01T02:36:58.013Z,99734.91
2022-10-01T02:39:27.682Z,99742.00
2022-10-01T02:41:55.758Z,99732.22
2022-10-01T02:44:37.844Z,99729.19
2022-10-01T02:47:18.207Z,99740.25
2022-10-01T02:49:47.137Z,99733.97
2022-10-01T02:52:19.719Z,99727.78
2022-10-01T02:54:58.311Z,99709.41
2022-10-01T02:57:27.585Z,99734.09
2022-10-01T03:00:15.375Z,99733.38
2022-10-01T03:02:42.145Z,99721.88
2022-10-01T03:05:09.183Z,99724.31
2022-10-01T03:07:36.242Z,99713.03
2022-10-01T03:10:04.739Z,99718.03
2022-10-01T03:12:31.390Z,99711.66
2022-10-01T03:14:57.778Z,99707.19
2022-10-01T03:17:24.163Z,99734.56
2022-10-01T03:19:50.526Z,99728.16
2022-10-01T03:22:19.967Z,99726.88
2022-10-01T03:24:46.391Z,99730.16
2022-10-01T03:27:12.777Z,99725.59
2022-10-01T03:29:39.128Z,99734.81
2022-10-01T03:32:05.493Z,99737.72
2022-10-01T03:34:32.050Z,99743.91
2022-10-01T03:36:58.435Z,99745.88
2022-10-01T03:39:24.811Z,99745.41
2022-10-01T03:41:51.227Z,99754.38
2022-10-01T03:44:17.797Z,99757.97
2022-10-01T03:46:44.254Z,99756.00
2022-10-01T03:49:11.033Z,99758.91
2022-10-01T03:51:38.021Z,99754.16
2022-10-01T03:54:06.426Z,99756.59
2022-10-01T03:56:33.711Z,99774.63
2022-10-01T03:59:00.448Z,99779.97
2022-10-01T04:01:27.340Z,99779.19
2022-10-01T04:03:54.070Z,99782.06
2022-10-01T04:06:20.514Z,99790.22
2022-10-01T04:08:47.004Z,99786.41
2022-10-01T04:11:13.530Z,99787.53
2022-10-01T04:13:40.050Z,99787.78
2022-10-01T04:16:07.334Z,99799.81
2022-10-01T04:18:34.677Z,99799.81
2022-10-01T04:21:01.130Z,99796.75
2022-10-01T04:23:27.515Z,99802.25
2022-10-01T04:25:53.866Z,99812.50
2022-10-01T04:28:20.385Z,99811.22
2022-10-01T04:30:46.886Z,99809.69
2022-10-01T04:33:16.477Z,99824.16
2022-10-01T04:35:44.008Z,99834.63
2022-10-01T04:38:16.476Z,99836.72
2022-10-01T04:40:43.440Z,99838.13
2022-10-01T04:43:11.738Z,99841.84
2022-10-01T04:45:38.878Z,99830.94
2022-10-01T04:48:05.487Z,99843.00
2022-10-01T04:50:32.457Z,99837.66
2022-10-01T04:52:59.098Z,99853.63
2022-10-01T04:55:25.574Z,99858.63
2022-10-01T04:57:52.984Z,99864.44
2022-10-01T05:00:22.042Z,99865.03
2022-10-01T05:02:49.940Z,99867.84
2022-10-01T05:05:17.964Z,99875.28
2022-10-01T05:07:44.718Z,99877.97
2022-10-01T05:10:20.779Z,99859.06
2022-10-01T05:12:48.683Z,99882.00
2022-10-01T05:15:16.589Z,99887.34
2022-10-01T05:17:43.135Z,99886.19
2022-10-01T05:20:16.839Z,99887.81
2022-10-01T05:22:44.437Z,99890.50
2022-10-01T05:25:10.831Z,99900.28
2022-10-01T05:27:37.943Z,99904.03
2022-10-01T05:30:05.505Z,99905.88
2022-10-01T05:32:31.995Z,99913.47
2022-10-01T05:34:58.359Z,99910.56
2022-10-01T05:37:24.719Z,99921.19
2022-10-01T05:39:52.483Z,99923.25
2022-10-01T05:42:18.912Z,99923.13
2022-10-01T05:44:49.996Z,99921.72
2022-10-01T05:47:17.183Z,99928.84
2022-10-01T05:49:44.436Z,99921.53
2022-10-01T05:52:12.294Z,99924.47
2022-10-01T05:54:38.902Z,99925.47
2022-10-01T05:57:06.158Z,99927.78
2022-10-01T05:59:32.638Z,99941.69
2022-10-01T06:01:59.129Z,99945.66
2022-10-01T06:04:25.710Z,99930.84
2022-10-01T06:06:54.100Z,99945.19
2022-10-01T06:09:20.483Z,99940.19
2022-10-01T06:11:46.950Z,99946.03
2022-10-01T06:14:13.318Z,99945.69
2022-10-01T06:16:39.738Z,99946.50
2022-10-01T06:19:06.322Z,99944.75
2022-10-01T06:21:33.126Z,99945.22
2022-10-01T06:23:59.817Z,99950.94
2022-10-01T06:26:26.302Z,99960.59
2022-10-01T06:28:52.724Z,99974.94
2022-10-01T06:31:19.700Z,99979.41
2022-10-01T06:33:46.146Z,99973.22
2022-10-01T06:36:12.620Z,99973.00
2022-10-01T06:38:39.048Z,99977.03
2022-10-01T06:41:05.792Z,99975.19
2022-10-01T06:43:33.127Z,99973.19
2022-10-01T06:46:04.714Z,99988.81
2022-10-01T06:48:31.716Z,99985.06
2022-10-01T06:50:59.135Z,99987.09
2022-10-01T06:53:28.209Z,99967.47
2022-10-01T06:55:55.089Z,99985.41
2022-10-01T06:58:23.379Z,99988.53
2022-10-01T07:00:50.561Z,99985.84
2022-10-01T07:03:21.974Z,99989.91
2022-10-01T07:05:49.354Z,99998.75
2022-10-01T07:08:16.522Z,100011.50
2022-10-01T07:10:44.189Z,100014.31
2022-10-01T07:13:16.580Z,99991.56
2022-10-01T07:15:43.956Z,100003.25
2022-10-01T07:18:11.176Z,100017.31
2022-10-01T07:20:42.111Z,100018.19
2022-10-01T07:23:12.011Z,100000.09
2022-10-01T07:25:39.614Z,100020.41
2022-10-01T07:28:08.355Z,100008.69
2022-10-01T07:30:35.848Z,100028.78
2022-10-01T07:33:02.255Z,100032.13
2022-10-01T07:35:29.619Z,100028.75
2022-10-01T07:37:56.036Z,100037.75
2022-10-01T07:40:22.681Z,100029.94
2022-10-01T07:42:56.266Z,100044.09
2022-10-01T07:45:23.851Z,100046.03
2022-10-01T07:47:59.739Z,100051.44
2022-10-01T07:50:28.067Z,100053.50
2022-10-01T07:52:56.252Z,100069.84
2022-10-01T07:55:28.347Z,100049.31
2022-10-01T07:57:57.511Z,100079.66
2022-10-01T08:00:25.949Z,100064.47
2022-10-01T08:02:55.958Z,100083.50
2022-10-01T08:05:25.628Z,100071.38
2022-10-01T08:07:52.211Z,100084.22
2022-10-01T08:10:20.430Z,100093.00
2022-10-01T08:12:46.848Z,100095.31
2022-10-01T08:15:16.297Z,100089.28
2022-10-01T08:17:43.280Z,100089.53
2022-10-01T08:20:11.938Z,100093.34
2022-10-01T08:22:42.142Z,100093.34
2022-10-01T08:25:09.891Z,100098.38
2022-10-01T08:27:36.404Z,100095.31
2022-10-01T08:30:02.971Z,100110.84
2022-10-01T08:32:30.917Z,100114.94
2022-10-01T08:34:58.987Z,100125.25
2022-10-01T08:37:27.145Z,100125.22
2022-10-01T08:39:54.653Z,100121.47
2022-10-01T08:42:47.845Z,100124.41
2022-10-01T08:45:36.929Z,100125.81
2022-10-01T08:48:06.831Z,100135.09
2022-10-01T08:51:04.797Z,100137.31
2022-10-01T08:53:40.751Z,100136.16
2022-10-01T08:56:21.573Z,100112.56
2022-10-01T08:58:53.488Z,100130.00
2022-10-01T09:01:20.804Z,100151.53
2022-10-01T09:03:47.401Z,100161.28
2022-10-01T09:06:40.122Z,100165.94
2022-10-01T09:09:34.629Z,100166.72
2022-10-01T09:12:01.134Z,100173.41
2022-10-01T09:15:00.253Z,100175.75
2022-10-01T09:17:48.334Z,100168.81
2022-10-01T09:20:27.030Z,100189.88
2022-10-01T09:23:12.316Z,100186.34
2022-10-01T09:25:39.607Z,100188.66
2022-10-01T09:28:34.045Z,100190.50
2022-10-01T09:31:06.614Z,100194.53
2022-10-01T09:33:47.103Z,100205.88
2022-10-01T09:36:26.478Z,100206.34
2022-10-01T09:39:05.273Z,100202.22
2022-10-01T09:41:31.859Z,100203.97
2022-10-01T09:43:58.437Z,100191.81
2022-10-01T09:46:26.595Z,100198.72
2022-10-01T09:48:59.737Z,100221.91
2022-10-01T09:51:41.539Z,100225.19
2022-10-01T09:54:36.057Z,100238.97
2022-10-01T09:57:26.942Z,100236.50
2022-10-01T10:00:02.404Z,100236.81
2022-10-01T10:02:33.232Z,100209.28
2022-10-01T10:05:09.975Z,100240.88
2022-10-01T10:07:42.235Z,100235.03
2022-10-01T10:10:26.299Z,100252.38
2022-10-01T10:13:02.618Z,100240.88
2022-10-01T10:15:32.565Z,100259.88
2022-10-01T10:18:13.084Z,100264.97
2022-10-01T10:20:41.903Z,100251.25
2022-10-01T10:23:19.457Z,100276.84
2022-10-01T10:26:07.331Z,100264.22
2022-10-01T10:28:44.233Z,100289.13
2022-10-01T10:31:16.684Z,100283.25
2022-10-01T10:33:57.910Z,100263.97
2022-10-01T10:36:30.227Z,100285.75
2022-10-01T10:38:58.979Z,100302.69
2022-10-01T10:41:27.691Z,100299.50
2022-10-01T10:43:58.119Z,100316.91
2022-10-01T10:46:32.725Z,100295.22
2022-10-01T10:49:15.222Z,100299.16
2022-10-01T10:51:49.288Z,100328.44
2022-10-01T10:54:24.273Z,100322.59
2022-10-01T10:57:03.587Z,100331.78
2022-10-01T10:59:32.431Z,100343.06
2022-10-01T11:02:00.917Z,100336.66
2022-10-01T11:04:39.844Z,100347.91
2022-10-01T11:07:07.109Z,100344.81
2022-10-01T11:09:57.326Z,100342.25
2022-10-01T11:12:33.117Z,100344.75
2022-10-01T11:15:21.909Z,100370.75
2022-10-01T11:18:04.093Z,100349.00
2022-10-01T11:20:33.531Z,100381.59
2022-10-01T11:23:36.634Z,100383.38
2022-10-01T11:26:16.513Z,100372.53
2022-10-01T11:29:03.794Z,100390.13
2022-10-01T11:31:40.811Z,100393.03
2022-10-01T11:34:25.754Z,100415.75
2022-10-01T11:37:16.260Z,100394.72
2022-10-01T11:39:44.914Z,100413.75
2022-10-01T11:42:20.146Z,100412.84
2022-10-01T11:45:04.441Z,100408.94
2022-10-01T11:47:36.799Z,100420.81
2022-10-01T11:50:18.762Z,100394.56
2022-10-01T11:53:16.953Z,100433.19
2022-10-01T11:56:24.031Z,100429.25
2022-10-01T11:58:56.761Z,100430.09
2022-10-01T12:02:01.573Z,100437.84
2022-10-01T12:04:35.790Z,100431.31
2022-10-01T12:07:20.267Z,100450.19
2022-10-01T12:10:03.402Z,100453.06
2022-10-01T12:12:38.991Z,100453.22
2022-10-01T12:15:23.779Z,100438.97
2022-10-01T12:17:56.354Z,100456.13
2022-10-01T12:20:29.924Z,100464.00
2022-10-01T12:22:59.086Z,100455.47
2022-10-01T12:25:54.542Z,100456.28
2022-10-01T12:28:39.021Z,100473.00
2022-10-01T12:31:20.158Z,100463.19
2022-10-01T12:33:59.878Z,100470.31
2022-10-01T12:36:36.898Z,100465.75
2022-10-01T12:39:16.643Z,100480.91
2022-10-01T12:42:01.974Z,100482.78
2022-10-01T12:44:50.008Z,100481.06
2022-10-01T12:47:42.940Z,100480.47
2022-10-01T12:50:25.638Z,100473.75
2022-10-01T12:52:54.843Z,100494.13
2022-10-01T12:55:42.042Z,100486.97
2022-10-01T12:58:40.842Z,100499.72
2022-10-01T13:01:34.305Z,100494.69
2022-10-01T13:04:20.908Z,100499.50
2022-10-01T13:07:08.603Z,100500.41
2022-10-01T13:09:48.971Z,100511.53
2022-10-01T13:12:34.243Z,100516.91
2022-10-01T13:15:00.636Z,100518.72
2022-10-01T13:18:09.266Z,100530.72
2022-10-01T13:20:44.114Z,100528.50
2022-10-01T13:23:27.342Z,100534.69
2022-10-01T13:26:29.079Z,100537.97
2022-10-01T13:29:23.323Z,100548.59
2022-10-01T13:31:57.336Z,100546.59
2022-10-01T13:34:46.300Z,100560.50
2022-10-01T13:37:14.596Z,100558.88
2022-10-01T13:39:43.322Z,100565.69
2022-10-01T13:42:27.483Z,100577.88
2022-10-01T13:45:10.992Z,100585.84
2022-10-01T13:47:41.204Z,100582.81
2022-10-01T13:50:25.144Z,100577.91
2022-10-01T13:52:53.121Z,100593.03
2022-10-01T13:55:27.559Z,100592.69
2022-10-01T13:58:31.771Z,100594.66
2022-10-01T14:01:01.370Z,100603.22
2022-10-01T14:03:42.255Z,100605.19
2022-10-01T14:06:18.278Z,100608.94
2022-10-01T14:08:54.266Z,100597.50
2022-10-01T14:11:45.851Z,100601.50
2022-10-01T14:14:38.689Z,100616.72
2022-10-01T14:17:08.511Z,100631.50
2022-10-01T14:19:35.271Z,100630.81
2022-10-01T14:22:04.425Z,100634.25
2022-10-01T14:24:55.512Z,100626.50
2022-10-01T14:28:19.503Z,100635.19
2022-10-01T14:30:56.001Z,100630.28
2022-10-01T14:33:47.179Z,100638.59
2022-10-01T14:36:29.543Z,100635.81
2022-10-01T14:39:19.103Z,100627.00
2022-10-01T14:41:48.029Z,100640.72
2022-10-01T14:44:29.953Z,100634.38
2022-10-01T14:46:58.908Z,100644.81
2022-10-01T14:49:29.226Z,100648.56
2022-10-01T14:52:05.524Z,100653.38
2022-10-01T14:54:42.732Z,100619.78
2022-10-01T14:57:12.827Z,100645.16
2022-10-01T14:59:40.634Z,100645.66
2022-10-01T15:02:19.393Z,100638.97
2022-10-01T15:04:51.200Z,100659.13
2022-10-01T15:07:18.029Z,100657.38
2022-10-01T15:09:46.964Z,100663.09
2022-10-01T15:12:16.073Z,100644.22
2022-10-01T15:14:43.725Z,100648.56
2022-10-01T15:17:21.085Z,100654.91
2022-10-01T15:19:52.444Z,100660.44
2022-10-01T15:22:26.981Z,100669.91
2022-10-01T15:24:57.755Z,100673.91
2022-10-01T15:27:24.946Z,100674.94
2022-10-01T15:29:56.653Z,100655.16
2022-10-01T15:32:25.542Z,100669.22
2022-10-01T15:34:55.986Z,100687.38
2022-10-01T15:37:46.805Z,100691.59
2022-10-01T15:40:29.684Z,100677.78
2022-10-01T15:43:08.028Z,100709.53
2022-10-01T15:45:35.730Z,100709.16
2022-10-01T15:48:02.102Z,100715.84
2022-10-01T15:50:34.458Z,100712.81
2022-10-01T15:53:10.237Z,100691.13
2022-10-01T15:55:46.269Z,100714.19
2022-10-01T15:58:15.676Z,100712.09
2022-10-01T16:00:48.698Z,100712.09
2022-10-01T16:03:27.335Z,100722.88
2022-10-01T16:05:55.138Z,100714.41
2022-10-01T16:08:26.037Z,100725.19
2022-10-01T16:11:14.198Z,100728.25
2022-10-01T16:13:44.862Z,100731.19
2022-10-01T16:16:14.389Z,100727.06
2022-10-01T16:18:42.720Z,100725.53
2022-10-01T16:21:11.112Z,100737.13
2022-10-01T16:23:40.305Z,100744.41
2022-10-01T16:26:27.055Z,100743.56
2022-10-01T16:28:56.432Z,100744.63
2022-10-01T16:31:26.898Z,100742.16
2022-10-01T16:33:53.347Z,100748.81
2022-10-01T16:36:21.690Z,100760.91
2022-10-01T16:38:48.220Z,100759.25
2022-10-01T16:41:21.280Z,100758.47
2022-10-01T16:43:49.666Z,100763.25
2022-10-01T16:46:16.217Z,100766.75
2022-10-01T16:48:42.671Z,100764.50
2022-10-01T16:51:09.207Z,100766.03
2022-10-01T16:53:35.672Z,100772.00
2022-10-01T16:56:02.048Z,100772.00
2022-10-01T16:58:28.598Z,100771.88
2022-10-01T17:00:55.043Z,100776.22
2022-10-01T17:03:22.462Z,100778.91
2022-10-01T17:05:49.930Z,100788.63
2022-10-01T17:08:17.081Z,100782.63
2022-10-01T17:10:51.246Z,100782.63
2022-10-01T17:13:17.751Z,100785.78
2022-10-01T17:15:44.180Z,100787.47
2022-10-01T17:18:10.600Z,100788.13
2022-10-01T17:20:40.953Z,100796.19
2022-10-01T17:23:08.084Z,100804.47
2022-10-01T17:25:36.812Z,100811.38
2022-10-01T17:28:06.391Z,100810.56
2022-10-01T17:30:33.172Z,100809.13
2022-10-01T17:33:00.825Z,100816.78
2022-10-01T17:35:29.317Z,100820.50
2022-10-01T17:37:56.105Z,100820.13
2022-10-01T17:40:22.491Z,100820.44
2022-10-01T17:42:49.145Z,100821.28
2022-10-01T17:45:16.001Z,100824.84
2022-10-01T17:47:44.493Z,100801.47
2022-10-01T17:50:11.299Z,100843.91
2022-10-01T17:52:37.947Z,100848.47
2022-10-01T17:55:05.168Z,100851.84
2022-10-01T17:57:31.843Z,100855.00
2022-10-01T17:59:58.247Z,100855.81
2022-10-01T18:02:40.901Z,100862.00
2022-10-01T18:05:09.476Z,100873.16
2022-10-01T18:07:39.331Z,100877.59
2022-10-01T18:10:08.291Z,100876.97
2022-10-01T18:12:34.995Z,100887.38
2022-10-01T18:15:01.866Z,100885.34
2022-10-01T18:17:28.338Z,100885.56
2022-10-01T18:19:54.802Z,100883.91
2022-10-01T18:22:22.409Z,100884.59
2022-10-01T18:24:48.767Z,100877.25
2022-10-01T18:27:15.325Z,100890.41
2022-10-01T18:29:41.909Z,100898.28
2022-10-01T18:32:19.216Z,100902.16
2022-10-01T18:34:57.790Z,100915.59
2022-10-01T18:37:45.584Z,100918.50
2022-10-01T18:40:36.684Z,100914.59
2022-10-01T18:43:15.876Z,100915.22
2022-10-01T18:46:11.456Z,100923.59
2022-10-01T18:49:10.310Z,100919.44
2022-10-01T18:52:05.247Z,100923.69
2022-10-01T18:54:51.455Z,100933.81
2022-10-01T18:57:52.139Z,100926.91
2022-10-01T19:00:23.264Z,100928.81
2022-10-01T19:03:05.098Z,100907.38
2022-10-01T19:05:49.797Z,100943.28
2022-10-01T19:08:49.337Z,100942.69
2022-10-01T19:11:37.459Z,100948.06
2022-10-01T19:14:19.043Z,100947.50
2022-10-01T19:17:07.765Z,100952.03
2022-10-01T19:20:01.990Z,100937.88
2022-10-01T19:23:14.227Z,100960.19
2022-10-01T19:25:50.454Z,100969.66
2022-10-01T19:28:46.907Z,100972.34
2022-10-01T19:31:18.546Z,100973.41
2022-10-01T19:33:51.991Z,100965.84
2022-10-01T19:36:26.002Z,100970.34
2022-10-01T19:38:57.381Z,100967.66
2022-10-01T19:41:36.307Z,100978.78
2022-10-01T19:44:09.778Z,100977.16
2022-10-01T19:46:40.947Z,100982.97
2022-10-01T19:49:08.519Z,100983.78
2022-10-01T19:51:39.369Z,100984.09
2022-10-01T19:54:13.824Z,100987.97
2022-10-01T19:56:41.322Z,100994.56
2022-10-01T19:59:12.526Z,100997.25
2022-10-01T20:01:46.280Z,101007.94
2022-10-01T20:04:22.477Z,101008.78
2022-10-01T20:06:48.939Z,101002.94
2022-10-01T20:09:26.908Z,101004.59
2022-10-01T20:11:56.251Z,101009.41
2022-10-01T20:14:48.314Z,101009.81
2022-10-01T20:17:29.555Z,101018.94
2022-10-01T20:20:13.469Z,100995.94
2022-10-01T20:23:11.056Z,101020.63
2022-10-01T20:25:50.754Z,101028.50
2022-10-01T20:28:40.771Z,101028.94
2022-10-01T20:31:23.109Z,101021.91
2022-10-01T20:34:17.773Z,101028.13
2022-10-01T20:36:53.601Z,101036.22
2022-10-01T20:39:32.240Z,101010.44
2022-10-01T20:41:59.975Z,101015.00
2022-10-01T20:44:36.025Z,101044.47
2022-10-01T20:47:07.257Z,101029.88
2022-10-01T20:49:43.496Z,101047.00
2022-10-01T20:52:25.146Z,101044.53
2022-10-01T20:54:53.087Z,101043.91
2022-10-01T20:57:44.435Z,101004.56
2022-10-01T21:00:19.516Z,101047.88
2022-10-01T21:02:48.968Z,101047.66
2022-10-01T21:05:29.245Z,101043.75
2022-10-01T21:08:01.350Z,101045.63
2022-10-01T21:10:42.478Z,101036.72
2022-10-01T21:13:19.147Z,101038.59
2022-10-01T21:15:59.063Z,101048.09
2022-10-01T21:19:17.387Z,101048.94
2022-10-01T21:21:46.515Z,101040.66
2022-10-01T21:24:30.856Z,101041.44
2022-10-01T21:27:15.172Z,101024.97
2022-10-01T21:29:50.317Z,101046.84
2022-10-01T21:32:38.408Z,101046.59
2022-10-01T21:35:24.023Z,101046.19
2022-10-01T21:37:59.249Z,101043.13
2022-10-01T21:41:20.116Z,101053.44
2022-10-01T21:44:10.101Z,101059.44
2022-10-01T21:46:47.351Z,101056.00
2022-10-01T21:49:32.350Z,101070.03
2022-10-01T21:52:14.839Z,101077.25
2022-10-01T21:54:56.707Z,101084.28
2022-10-01T21:57:48.188Z,101077.03
2022-10-01T22:00:26.465Z,101080.41
2022-10-01T22:03:07.831Z,101076.25
2022-10-01T22:05:53.615Z,101080.22
2022-10-01T22:08:46.099Z,101071.38
2022-10-01T22:11:18.281Z,101085.03
2022-10-01T22:13:54.804Z,101090.41
2022-10-01T22:16:26.042Z,101098.72
2022-10-01T22:19:06.580Z,101090.84
2022-10-01T22:21:50.745Z,101097.88
2022-10-01T22:24:31.041Z,101099.72
2022-10-01T22:27:27.688Z,101107.00
2022-10-01T22:30:00.367Z,101096.28
2022-10-01T22:32:33.162Z,101097.47
2022-10-01T22:35:07.443Z,101074.00
2022-10-01T22:37:40.226Z,101102.63
2022-10-01T22:40:43.516Z,101105.75
2022-10-01T22:43:12.340Z,101104.13
2022-10-01T22:45:54.706Z,101105.75
2022-10-01T22:48:59.432Z,101107.41
2022-10-01T22:51:25.784Z,101117.34
2022-10-01T22:54:07.259Z,101115.91
2022-10-01T22:56:43.999Z,101105.63
2022-10-01T22:59:35.456Z,101123.78
2022-10-01T23:02:12.819Z,101119.91
2022-10-01T23:04:51.480Z,101120.31
2022-10-01T23:07:29.029Z,101127.78
2022-10-01T23:10:13.785Z,101137.06
2022-10-01T23:12:49.284Z,101140.81
2022-10-01T23:15:15.904Z,101146.41
2022-10-01T23:18:20.024Z,101140.81
2022-10-01T23:21:04.820Z,101154.81
2022-10-01T23:23:33.119Z,101150.66
2022-10-01T23:26:13.487Z,101143.03
2022-10-01T23:28:48.862Z,101149.41
2022-10-01T23:31:45.177Z,101158.50
2022-10-01T23:34:39.003Z,101158.94
2022-10-01T23:37:43.911Z,101152.09
2022-10-01T23:40:17.945Z,101152.53
2022-10-01T23:43:03.435Z,101152.09
2022-10-01T23:45:52.694Z,101140.94
2022-10-01T23:48:38.945Z,101157.06
2022-10-01T23:51:11.190Z,101164.69
2022-10-01T23:53:44.283Z,101160.75
2022-10-01T23:56:39.602Z,101145.28
2022-10-01T23:59:08.680Z,101169.84
